sensor_id;sensor_type;location;lat;lon;timestamp;temperature;humidity
51853;DHT22;37894;53.172;6.598;2022-12-18T00:00:48;-3.80;99.90
51853;DHT22;37894;53.172;6.598;2022-12-18T00:03:14;-3.70;99.90
51853;DHT22;37894;53.172;6.598;2022-12-18T00:05:49;-3.90;99.90
51853;DHT22;37894;53.172;6.598;2022-12-18T00:08:15;-2.80;99.90
51853;DHT22;37894;53.172;6.598;2022-12-18T00:13:07;-3.80;99.90
51853;DHT22;37894;53.172;6.598;2022-12-18T00:15:38;-3.60;99.90
51853;DHT22;37894;53.172;6.598;2022-12-18T00:18:04;-3.60;99.90
51853;DHT22;37894;53.172;6.598;2022-12-18T00:20:30;-2.60;99.90
51853;DHT22;37894;53.172;6.598;2022-12-18T00:22:56;-4.20;99.90
51853;DHT22;37894;53.172;6.598;2022-12-18T00:25:22;-3.80;99.90
51853;DHT22;37894;53.172;6.598;2022-12-18T00:27:48;-3.10;99.90
51853;DHT22;37894;53.172;6.598;2022-12-18T00:32:40;-3.50;99.90
51853;DHT22;37894;53.172;6.598;2022-12-18T00:35:06;-3.50;99.90
51853;DHT22;37894;53.172;6.598;2022-12-18T00:37:34;-3.80;99.90
51853;DHT22;37894;53.172;6.598;2022-12-18T00:39:59;-3.50;99.90
51853;DHT22;37894;53.172;6.598;2022-12-18T00:45:10;-3.70;99.90
51853;DHT22;37894;53.172;6.598;2022-12-18T00:47:36;-3.90;99.90
51853;DHT22;37894;53.172;6.598;2022-12-18T00:50:02;-3.90;99.90
51853;DHT22;37894;53.172;6.598;2022-12-18T00:52:27;-3.70;99.90
51853;DHT22;37894;53.172;6.598;2022-12-18T00:54:53;-3.60;99.90
51853;DHT22;37894;53.172;6.598;2022-12-18T00:57:19;-4.00;99.90
51853;DHT22;37894;53.172;6.598;2022-12-18T00:59:44;-3.60;99.90
51853;DHT22;37894;53.172;6.598;2022-12-18T01:02:10;-4.30;99.90
51853;DHT22;37894;53.172;6.598;2022-12-18T01:07:02;-2.60;99.90
51853;DHT22;37894;53.172;6.598;2022-12-18T01:09:28;-4.10;99.90
51853;DHT22;37894;53.172;6.598;2022-12-18T01:11:54;-4.30;99.90
51853;DHT22;37894;53.172;6.598;2022-12-18T01:14:19;-4.90;99.90
51853;DHT22;37894;53.172;6.598;2022-12-18T01:16:45;-4.00;99.90
51853;DHT22;37894;53.172;6.598;2022-12-18T01:19:11;-2.80;99.90
51853;DHT22;37894;53.172;6.598;2022-12-18T01:24:03;-3.80;99.90
51853;DHT22;37894;53.172;6.598;2022-12-18T01:26:29;-3.90;99.90
51853;DHT22;37894;53.172;6.598;2022-12-18T01:28:58;-4.10;99.90
51853;DHT22;37894;53.172;6.598;2022-12-18T01:31:27;-3.80;99.90
51853;DHT22;37894;53.172;6.598;2022-12-18T01:36:25;-4.00;99.90
51853;DHT22;37894;53.172;6.598;2022-12-18T01:38:51;-4.20;99.90
51853;DHT22;37894;53.172;6.598;2022-12-18T01:41:19;-4.30;99.90
51853;DHT22;37894;53.172;6.598;2022-12-18T01:43:56;-4.10;99.90
51853;DHT22;37894;53.172;6.598;2022-12-18T01:46:23;-3.50;99.90
51853;DHT22;37894;53.172;6.598;2022-12-18T01:48:52;-4.10;99.90
51853;DHT22;37894;53.172;6.598;2022-12-18T01:53:46;-4.40;99.90
51853;DHT22;37894;53.172;6.598;2022-12-18T01:56:17;-4.30;99.90
51853;DHT22;37894;53.172;6.598;2022-12-18T01:59:04;-4.30;99.90
51853;DHT22;37894;53.172;6.598;2022-12-18T02:01:32;-4.40;99.90
51853;DHT22;37894;53.172;6.598;2022-12-18T02:04:19;-4.40;99.90
51853;DHT22;37894;53.172;6.598;2022-12-18T02:06:45;-4.50;99.90
51853;DHT22;37894;53.172;6.598;2022-12-18T02:09:18;-4.30;99.90
51853;DHT22;37894;53.172;6.598;2022-12-18T02:14:43;-4.60;99.90
51853;DHT22;37894;53.172;6.598;2022-12-18T02:20:05;-4.70;99.90
51853;DHT22;37894;53.172;6.598;2022-12-18T02:27:52;-4.70;99.90
51853;DHT22;37894;53.172;6.598;2022-12-18T02:30:18;-4.70;99.90
51853;DHT22;37894;53.172;6.598;2022-12-18T02:32:48;-4.60;99.90
51853;DHT22;37894;53.172;6.598;2022-12-18T02:35:19;-4.40;99.90
51853;DHT22;37894;53.172;6.598;2022-12-18T02:37:46;-4.70;99.90
51853;DHT22;37894;53.172;6.598;2022-12-18T02:40:14;-4.70;99.90
51853;DHT22;37894;53.172;6.598;2022-12-18T02:47:35;-4.80;99.90
51853;DHT22;37894;53.172;6.598;2022-12-18T03:01:51;-5.00;99.90
51853;DHT22;37894;53.172;6.598;2022-12-18T03:04:26;-5.00;99.90
51853;DHT22;37894;53.172;6.598;2022-12-18T03:06:55;-4.80;99.90
51853;DHT22;37894;53.172;6.598;2022-12-18T03:09:29;-4.20;99.90
51853;DHT22;37894;53.172;6.598;2022-12-18T03:12:05;-4.90;99.90
51853;DHT22;37894;53.172;6.598;2022-12-18T03:15:28;-4.30;99.90
51853;DHT22;37894;53.172;6.598;2022-12-18T03:18:01;-4.10;99.90
51853;DHT22;37894;53.172;6.598;2022-12-18T03:20:30;-5.00;99.90
51853;DHT22;37894;53.172;6.598;2022-12-18T03:23:06;-4.90;99.90
51853;DHT22;37894;53.172;6.598;2022-12-18T03:25:35;-5.00;99.90
51853;DHT22;37894;53.172;6.598;2022-12-18T03:28:04;-4.90;99.90
51853;DHT22;37894;53.172;6.598;2022-12-18T03:30:32;-4.90;99.90
51853;DHT22;37894;53.172;6.598;2022-12-18T03:33:12;-4.90;99.90
51853;DHT22;37894;53.172;6.598;2022-12-18T03:35:42;-4.80;99.90
51853;DHT22;37894;53.172;6.598;2022-12-18T03:38:08;-4.90;99.90
51853;DHT22;37894;53.172;6.598;2022-12-18T03:46:07;-3.50;99.90
51853;DHT22;37894;53.172;6.598;2022-12-18T03:48:55;-4.80;99.90
51853;DHT22;37894;53.172;6.598;2022-12-18T03:51:36;-4.10;99.90
51853;DHT22;37894;53.172;6.598;2022-12-18T03:54:04;-5.60;99.90
51853;DHT22;37894;53.172;6.598;2022-12-18T03:56:49;-5.20;99.90
51853;DHT22;37894;53.172;6.598;2022-12-18T03:59:17;-4.70;99.90
51853;DHT22;37894;53.172;6.598;2022-12-18T04:01:49;-5.00;99.90
51853;DHT22;37894;53.172;6.598;2022-12-18T04:04:17;-5.10;99.90
51853;DHT22;37894;53.172;6.598;2022-12-18T04:06:45;-5.10;99.90
51853;DHT22;37894;53.172;6.598;2022-12-18T04:09:12;-4.90;99.90
51853;DHT22;37894;53.172;6.598;2022-12-18T04:11:40;-4.90;99.90
51853;DHT22;37894;53.172;6.598;2022-12-18T04:18:58;-4.80;99.90
51853;DHT22;37894;53.172;6.598;2022-12-18T04:23:50;-4.90;99.90
51853;DHT22;37894;53.172;6.598;2022-12-18T04:36:00;-5.30;99.90
51853;DHT22;37894;53.172;6.598;2022-12-18T04:38:26;-4.40;99.90
51853;DHT22;37894;53.172;6.598;2022-12-18T04:40:51;-5.60;99.90
51853;DHT22;37894;53.172;6.598;2022-12-18T04:48:09;-4.20;99.90
51853;DHT22;37894;53.172;6.598;2022-12-18T04:50:35;-5.30;99.90
51853;DHT22;37894;53.172;6.598;2022-12-18T04:53:01;-5.30;99.90
51853;DHT22;37894;53.172;6.598;2022-12-18T04:55:27;-6.20;99.90
51853;DHT22;37894;53.172;6.598;2022-12-18T04:57:53;-5.30;99.90
51853;DHT22;37894;53.172;6.598;2022-12-18T05:00:19;-5.80;99.90
51853;DHT22;37894;53.172;6.598;2022-12-18T05:02:45;-5.40;99.90
51853;DHT22;37894;53.172;6.598;2022-12-18T05:05:10;-5.40;99.90
51853;DHT22;37894;53.172;6.598;2022-12-18T05:10:03;-5.50;99.90
51853;DHT22;37894;53.172;6.598;2022-12-18T05:19:47;-5.60;99.90
51853;DHT22;37894;53.172;6.598;2022-12-18T05:22:12;-4.50;99.90
51853;DHT22;37894;53.172;6.598;2022-12-18T05:24:38;-5.30;99.90
51853;DHT22;37894;53.172;6.598;2022-12-18T05:29:30;-5.50;99.90
51853;DHT22;37894;53.172;6.598;2022-12-18T05:36:48;-5.20;99.90
51853;DHT22;37894;53.172;6.598;2022-12-18T05:41:40;-5.40;99.90
51853;DHT22;37894;53.172;6.598;2022-12-18T05:44:05;-5.70;99.90
51853;DHT22;37894;53.172;6.598;2022-12-18T05:46:31;-5.20;99.90
51853;DHT22;37894;53.172;6.598;2022-12-18T05:48:59;-5.30;99.90
51853;DHT22;37894;53.172;6.598;2022-12-18T05:56:22;-5.40;99.90
51853;DHT22;37894;53.172;6.598;2022-12-18T05:58:51;-5.60;99.90
51853;DHT22;37894;53.172;6.598;2022-12-18T06:01:20;-6.40;99.90
51853;DHT22;37894;53.172;6.598;2022-12-18T06:03:46;-5.60;99.90
51853;DHT22;37894;53.172;6.598;2022-12-18T06:06:21;-4.50;99.90
51853;DHT22;37894;53.172;6.598;2022-12-18T06:08:48;-5.90;99.90
51853;DHT22;37894;53.172;6.598;2022-12-18T06:11:17;-5.50;99.90
51853;DHT22;37894;53.172;6.598;2022-12-18T06:13:43;-6.30;99.90
51853;DHT22;37894;53.172;6.598;2022-12-18T06:16:08;-5.90;99.90
51853;DHT22;37894;53.172;6.598;2022-12-18T06:18:37;-5.40;99.90
51853;DHT22;37894;53.172;6.598;2022-12-18T06:23:32;-5.80;99.90
51853;DHT22;37894;53.172;6.598;2022-12-18T06:25:58;-4.50;99.90
51853;DHT22;37894;53.172;6.598;2022-12-18T06:28:23;-5.60;99.90
51853;DHT22;37894;53.172;6.598;2022-12-18T06:30:50;-6.60;99.90
51853;DHT22;37894;53.172;6.598;2022-12-18T06:33:16;-5.80;99.90
51853;DHT22;37894;53.172;6.598;2022-12-18T06:35:42;-5.60;99.90
51853;DHT22;37894;53.172;6.598;2022-12-18T06:38:08;-5.60;99.90
51853;DHT22;37894;53.172;6.598;2022-12-18T06:40:34;-5.70;99.90
51853;DHT22;37894;53.172;6.598;2022-12-18T06:42:59;-5.70;99.90
51853;DHT22;37894;53.172;6.598;2022-12-18T06:45:25;-6.50;99.90
51853;DHT22;37894;53.172;6.598;2022-12-18T06:47:51;-5.60;99.90
51853;DHT22;37894;53.172;6.598;2022-12-18T06:50:17;-4.80;99.90
51853;DHT22;37894;53.172;6.598;2022-12-18T06:55:10;-5.70;99.90
51853;DHT22;37894;53.172;6.598;2022-12-18T06:57:37;-6.10;99.90
51853;DHT22;37894;53.172;6.598;2022-12-18T07:00:05;-4.80;99.90
51853;DHT22;37894;53.172;6.598;2022-12-18T07:02:31;-6.00;99.90
51853;DHT22;37894;53.172;6.598;2022-12-18T07:04:57;-5.70;99.90
51853;DHT22;37894;53.172;6.598;2022-12-18T07:07:22;-5.80;99.90
51853;DHT22;37894;53.172;6.598;2022-12-18T07:09:49;-5.50;99.90
51853;DHT22;37894;53.172;6.598;2022-12-18T07:12:15;-4.70;99.90
51853;DHT22;37894;53.172;6.598;2022-12-18T07:17:07;-4.70;99.90
51853;DHT22;37894;53.172;6.598;2022-12-18T07:19:33;-5.80;99.90
51853;DHT22;37894;53.172;6.598;2022-12-18T07:21:59;-5.60;99.90
51853;DHT22;37894;53.172;6.598;2022-12-18T07:24:25;-5.70;99.90
51853;DHT22;37894;53.172;6.598;2022-12-18T07:29:17;-6.00;99.90
51853;DHT22;37894;53.172;6.598;2022-12-18T07:31:43;-5.50;99.90
51853;DHT22;37894;53.172;6.598;2022-12-18T07:34:13;-6.40;99.90
51853;DHT22;37894;53.172;6.598;2022-12-18T07:36:39;-5.60;99.90
51853;DHT22;37894;53.172;6.598;2022-12-18T07:39:05;-5.90;99.90
51853;DHT22;37894;53.172;6.598;2022-12-18T07:41:31;-5.00;99.90
51853;DHT22;37894;53.172;6.598;2022-12-18T07:43:56;-4.70;99.90
51853;DHT22;37894;53.172;6.598;2022-12-18T07:46:22;-4.40;99.90
51853;DHT22;37894;53.172;6.598;2022-12-18T07:48:48;-5.70;99.90
51853;DHT22;37894;53.172;6.598;2022-12-18T07:51:14;-5.50;99.90
51853;DHT22;37894;53.172;6.598;2022-12-18T07:53:40;-5.50;99.90
51853;DHT22;37894;53.172;6.598;2022-12-18T07:56:10;-4.20;99.90
51853;DHT22;37894;53.172;6.598;2022-12-18T07:58:36;-5.60;99.90
51853;DHT22;37894;53.172;6.598;2022-12-18T08:01:04;-5.30;99.90
51853;DHT22;37894;53.172;6.598;2022-12-18T08:03:30;-5.30;99.90
51853;DHT22;37894;53.172;6.598;2022-12-18T08:06:04;-5.70;99.90
51853;DHT22;37894;53.172;6.598;2022-12-18T08:08:30;-5.60;99.90
51853;DHT22;37894;53.172;6.598;2022-12-18T08:10:57;-5.30;99.90
51853;DHT22;37894;53.172;6.598;2022-12-18T08:16:00;-5.50;99.90
51853;DHT22;37894;53.172;6.598;2022-12-18T08:23:18;-5.30;99.90
51853;DHT22;37894;53.172;6.598;2022-12-18T08:25:44;-4.30;99.90
51853;DHT22;37894;53.172;6.598;2022-12-18T08:28:10;-5.10;99.90
51853;DHT22;37894;53.172;6.598;2022-12-18T08:30:36;-5.30;99.90
51853;DHT22;37894;53.172;6.598;2022-12-18T08:33:02;-6.20;99.90
51853;DHT22;37894;53.172;6.598;2022-12-18T08:40:20;-5.40;99.90
51853;DHT22;37894;53.172;6.598;2022-12-18T08:42:45;-4.90;99.90
51853;DHT22;37894;53.172;6.598;2022-12-18T08:45:29;-5.40;99.90
51853;DHT22;37894;53.172;6.598;2022-12-18T08:47:55;-5.40;99.90
51853;DHT22;37894;53.172;6.598;2022-12-18T08:50:21;-5.30;99.90
51853;DHT22;37894;53.172;6.598;2022-12-18T08:52:46;-6.10;99.90
51853;DHT22;37894;53.172;6.598;2022-12-18T09:00:05;-4.10;99.90
51853;DHT22;37894;53.172;6.598;2022-12-18T09:04:56;-5.70;99.90
51853;DHT22;37894;53.172;6.598;2022-12-18T09:07:22;-5.40;99.90
51853;DHT22;37894;53.172;6.598;2022-12-18T09:09:48;-5.30;99.90
51853;DHT22;37894;53.172;6.598;2022-12-18T09:19:31;-5.00;99.90
51853;DHT22;37894;53.172;6.598;2022-12-18T09:21:57;-4.90;99.90
51853;DHT22;37894;53.172;6.598;2022-12-18T09:24:23;-5.00;99.90
51853;DHT22;37894;53.172;6.598;2022-12-18T09:29:15;-5.80;99.90
51853;DHT22;37894;53.172;6.598;2022-12-18T09:31:41;-5.30;99.90
51853;DHT22;37894;53.172;6.598;2022-12-18T09:34:07;-4.60;99.90
51853;DHT22;37894;53.172;6.598;2022-12-18T09:36:33;-4.50;99.90
51853;DHT22;37894;53.172;6.598;2022-12-18T09:38:59;-5.00;99.90
51853;DHT22;37894;53.172;6.598;2022-12-18T09:44:30;-4.50;99.90
51853;DHT22;37894;53.172;6.598;2022-12-18T09:47:01;-4.50;99.90
51853;DHT22;37894;53.172;6.598;2022-12-18T09:49:35;-4.40;99.90
51853;DHT22;37894;53.172;6.598;2022-12-18T09:54:38;-5.00;99.90
51853;DHT22;37894;53.172;6.598;2022-12-18T09:57:21;-4.00;99.90
51853;DHT22;37894;53.172;6.598;2022-12-18T09:59:58;-3.30;99.90
51853;DHT22;37894;53.172;6.598;2022-12-18T10:02:25;-4.00;99.90
51853;DHT22;37894;53.172;6.598;2022-12-18T10:05:12;-4.10;99.90
51853;DHT22;37894;53.172;6.598;2022-12-18T10:07:45;-4.00;99.90
51853;DHT22;37894;53.172;6.598;2022-12-18T10:10:27;-4.10;99.90
51853;DHT22;37894;53.172;6.598;2022-12-18T10:15:44;-3.20;99.90
51853;DHT22;37894;53.172;6.598;2022-12-18T10:21:10;-3.70;99.90
51853;DHT22;37894;53.172;6.598;2022-12-18T10:23:47;-4.10;99.90
51853;DHT22;37894;53.172;6.598;2022-12-18T10:26:20;-3.30;99.90
51853;DHT22;37894;53.172;6.598;2022-12-18T10:28:45;-3.70;99.90
51853;DHT22;37894;53.172;6.598;2022-12-18T10:31:20;-3.50;99.90
51853;DHT22;37894;53.172;6.598;2022-12-18T10:33:46;-3.50;99.90
51853;DHT22;37894;53.172;6.598;2022-12-18T10:36:13;-3.40;99.90
51853;DHT22;37894;53.172;6.598;2022-12-18T10:38:39;-3.50;99.90
51853;DHT22;37894;53.172;6.598;2022-12-18T10:41:23;-3.50;99.90
51853;DHT22;37894;53.172;6.598;2022-12-18T10:44:18;-4.20;99.90
51853;DHT22;37894;53.172;6.598;2022-12-18T10:46:45;-2.90;99.90
51853;DHT22;37894;53.172;6.598;2022-12-18T10:49:26;-3.10;99.90
51853;DHT22;37894;53.172;6.598;2022-12-18T10:52:05;-3.30;99.90
51853;DHT22;37894;53.172;6.598;2022-12-18T10:54:33;-3.60;99.90
51853;DHT22;37894;53.172;6.598;2022-12-18T10:59:53;-3.20;99.90
51853;DHT22;37894;53.172;6.598;2022-12-18T11:02:37;-3.10;99.90
51853;DHT22;37894;53.172;6.598;2022-12-18T11:05:29;-3.70;99.90
51853;DHT22;37894;53.172;6.598;2022-12-18T11:07:57;-3.50;99.90
51853;DHT22;37894;53.172;6.598;2022-12-18T11:10:36;-3.10;99.90
51853;DHT22;37894;53.172;6.598;2022-12-18T11:13:29;-3.00;99.90
51853;DHT22;37894;53.172;6.598;2022-12-18T11:15:56;-2.70;99.90
51853;DHT22;37894;53.172;6.598;2022-12-18T11:18:31;-2.70;99.90
51853;DHT22;37894;53.172;6.598;2022-12-18T11:21:06;-2.70;99.90
51853;DHT22;37894;53.172;6.598;2022-12-18T11:23:33;-2.80;99.90
51853;DHT22;37894;53.172;6.598;2022-12-18T11:26:02;-2.90;99.90
51853;DHT22;37894;53.172;6.598;2022-12-18T11:33:40;-2.50;99.90
51853;DHT22;37894;53.172;6.598;2022-12-18T11:36:08;-2.60;99.90
51853;DHT22;37894;53.172;6.598;2022-12-18T11:38:40;-1.60;99.90
51853;DHT22;37894;53.172;6.598;2022-12-18T11:41:23;-2.60;99.90
51853;DHT22;37894;53.172;6.598;2022-12-18T11:44:24;-2.80;99.90
51853;DHT22;37894;53.172;6.598;2022-12-18T11:46:55;-2.20;99.90
51853;DHT22;37894;53.172;6.598;2022-12-18T11:49:33;-2.40;99.90
51853;DHT22;37894;53.172;6.598;2022-12-18T11:52:34;-2.20;99.90
51853;DHT22;37894;53.172;6.598;2022-12-18T11:55:13;-2.50;99.90
51853;DHT22;37894;53.172;6.598;2022-12-18T12:00:14;-2.20;99.90
51853;DHT22;37894;53.172;6.598;2022-12-18T12:06:21;-2.00;99.90
51853;DHT22;37894;53.172;6.598;2022-12-18T12:20:04;-2.00;99.90
51853;DHT22;37894;53.172;6.598;2022-12-18T12:25:21;-2.70;99.90
51853;DHT22;37894;53.172;6.598;2022-12-18T12:28:32;-1.70;99.90
51853;DHT22;37894;53.172;6.598;2022-12-18T12:31:02;-1.80;99.90
51853;DHT22;37894;53.172;6.598;2022-12-18T12:36:03;-1.90;99.90
51853;DHT22;37894;53.172;6.598;2022-12-18T12:38:44;-2.20;99.90
51853;DHT22;37894;53.172;6.598;2022-12-18T12:41:14;-2.00;99.90
51853;DHT22;37894;53.172;6.598;2022-12-18T12:44:04;-2.70;99.90
51853;DHT22;37894;53.172;6.598;2022-12-18T12:46:36;-1.10;99.90
51853;DHT22;37894;53.172;6.598;2022-12-18T12:49:03;-1.80;99.90
51853;DHT22;37894;53.172;6.598;2022-12-18T12:51:40;-1.90;99.90
51853;DHT22;37894;53.172;6.598;2022-12-18T12:54:19;-1.70;99.90
51853;DHT22;37894;53.172;6.598;2022-12-18T12:57:09;-2.20;99.90
51853;DHT22;37894;53.172;6.598;2022-12-18T13:05:41;-0.50;99.90
51853;DHT22;37894;53.172;6.598;2022-12-18T13:08:03;-1.60;99.90
51853;DHT22;37894;53.172;6.598;2022-12-18T13:10:36;-1.60;99.90
51853;DHT22;37894;53.172;6.598;2022-12-18T13:13:13;-2.50;99.90
51853;DHT22;37894;53.172;6.598;2022-12-18T13:15:48;-1.50;99.90
51853;DHT22;37894;53.172;6.598;2022-12-18T13:25:59;0.10;99.90
51853;DHT22;37894;53.172;6.598;2022-12-18T13:34:24;-1.60;99.90
51853;DHT22;37894;53.172;6.598;2022-12-18T13:36:52;-1.40;99.90
51853;DHT22;37894;53.172;6.598;2022-12-18T13:39:22;1.70;99.90
51853;DHT22;37894;53.172;6.598;2022-12-18T13:44:55;-1.50;99.90
51853;DHT22;37894;53.172;6.598;2022-12-18T13:47:37;-1.50;99.90
51853;DHT22;37894;53.172;6.598;2022-12-18T13:50:20;-2.10;99.90
51853;DHT22;37894;53.172;6.598;2022-12-18T13:55:22;-1.10;99.90
51853;DHT22;37894;53.172;6.598;2022-12-18T14:00:34;-1.20;99.90
51853;DHT22;37894;53.172;6.598;2022-12-18T14:05:32;-1.40;99.90
51853;DHT22;37894;53.172;6.598;2022-12-18T14:08:21;-1.60;99.90
51853;DHT22;37894;53.172;6.598;2022-12-18T14:10:48;-1.30;99.90
51853;DHT22;37894;53.172;6.598;2022-12-18T14:13:31;-0.90;99.90
51853;DHT22;37894;53.172;6.598;2022-12-18T14:16:01;-1.20;99.90
51853;DHT22;37894;53.172;6.598;2022-12-18T14:21:21;-1.10;99.90
51853;DHT22;37894;53.172;6.598;2022-12-18T14:26:28;-2.10;99.90
51853;DHT22;37894;53.172;6.598;2022-12-18T14:29:17;-1.20;99.90
51853;DHT22;37894;53.172;6.598;2022-12-18T14:31:43;-1.50;99.90
51853;DHT22;37894;53.172;6.598;2022-12-18T14:34:16;-1.40;99.90
51853;DHT22;37894;53.172;6.598;2022-12-18T14:36:51;-1.40;99.90
51853;DHT22;37894;53.172;6.598;2022-12-18T14:39:18;-1.40;99.90
51853;DHT22;37894;53.172;6.598;2022-12-18T14:44:12;-1.60;99.90
51853;DHT22;37894;53.172;6.598;2022-12-18T14:46:39;-0.60;99.90
51853;DHT22;37894;53.172;6.598;2022-12-18T14:52:04;-1.50;99.90
51853;DHT22;37894;53.172;6.598;2022-12-18T14:57:05;-1.40;99.90
51853;DHT22;37894;53.172;6.598;2022-12-18T14:59:31;-1.30;99.90
51853;DHT22;37894;53.172;6.598;2022-12-18T15:02:18;-1.40;99.90
51853;DHT22;37894;53.172;6.598;2022-12-18T15:04:46;-1.80;99.90
51853;DHT22;37894;53.172;6.598;2022-12-18T15:07:21;-1.40;99.90
51853;DHT22;37894;53.172;6.598;2022-12-18T15:12:37;-1.60;99.90
51853;DHT22;37894;53.172;6.598;2022-12-18T15:15:05;-1.50;99.90
51853;DHT22;37894;53.172;6.598;2022-12-18T15:17:57;-1.50;99.90
51853;DHT22;37894;53.172;6.598;2022-12-18T15:20:23;-1.00;99.90
51853;DHT22;37894;53.172;6.598;2022-12-18T15:25:41;-1.70;99.90
51853;DHT22;37894;53.172;6.598;2022-12-18T15:31:04;-1.50;99.90
51853;DHT22;37894;53.172;6.598;2022-12-18T15:33:32;-1.80;99.90
51853;DHT22;37894;53.172;6.598;2022-12-18T15:36:00;-1.70;99.90
51853;DHT22;37894;53.172;6.598;2022-12-18T15:38:26;-1.90;99.90
51853;DHT22;37894;53.172;6.598;2022-12-18T15:40:53;-1.30;99.90
51853;DHT22;37894;53.172;6.598;2022-12-18T15:43:23;-2.00;99.90
51853;DHT22;37894;53.172;6.598;2022-12-18T15:46:03;-2.00;99.90
51853;DHT22;37894;53.172;6.598;2022-12-18T15:50:56;-2.00;99.90
51853;DHT22;37894;53.172;6.598;2022-12-18T15:53:25;-1.90;99.90
51853;DHT22;37894;53.172;6.598;2022-12-18T15:55:51;-1.80;99.90
51853;DHT22;37894;53.172;6.598;2022-12-18T16:03:28;-1.30;99.90
51853;DHT22;37894;53.172;6.598;2022-12-18T16:08:20;-1.70;99.90
51853;DHT22;37894;53.172;6.598;2022-12-18T16:13:12;-1.90;99.90
51853;DHT22;37894;53.172;6.598;2022-12-18T16:15:39;-1.70;99.90
51853;DHT22;37894;53.172;6.598;2022-12-18T16:18:05;-1.80;99.90
51853;DHT22;37894;53.172;6.598;2022-12-18T16:20:31;-2.00;99.90
51853;DHT22;37894;53.172;6.598;2022-12-18T16:22:56;-2.10;99.90
51853;DHT22;37894;53.172;6.598;2022-12-18T16:25:27;-1.60;99.90
51853;DHT22;37894;53.172;6.598;2022-12-18T16:27:54;-0.60;99.90
51853;DHT22;37894;53.172;6.598;2022-12-18T16:30:26;-2.10;99.90
51853;DHT22;37894;53.172;6.598;2022-12-18T16:32:53;-1.70;99.90
51853;DHT22;37894;53.172;6.598;2022-12-18T16:35:20;-2.10;99.90
51853;DHT22;37894;53.172;6.598;2022-12-18T16:37:46;-1.90;99.90
51853;DHT22;37894;53.172;6.598;2022-12-18T16:40:14;-1.80;99.90
51853;DHT22;37894;53.172;6.598;2022-12-18T16:42:41;-1.00;99.90
51853;DHT22;37894;53.172;6.598;2022-12-18T16:45:09;-1.30;99.90
51853;DHT22;37894;53.172;6.598;2022-12-18T16:47:36;-1.90;99.90
51853;DHT22;37894;53.172;6.598;2022-12-18T16:50:03;-2.20;99.90
51853;DHT22;37894;53.172;6.598;2022-12-18T16:52:29;-1.20;99.90
51853;DHT22;37894;53.172;6.598;2022-12-18T16:54:55;-1.80;99.90
51853;DHT22;37894;53.172;6.598;2022-12-18T16:57:22;-1.50;99.90
51853;DHT22;37894;53.172;6.598;2022-12-18T17:02:32;-1.70;99.90
51853;DHT22;37894;53.172;6.598;2022-12-18T17:04:58;-1.50;99.90
51853;DHT22;37894;53.172;6.598;2022-12-18T17:07:24;-1.80;99.90
51853;DHT22;37894;53.172;6.598;2022-12-18T17:09:50;-1.60;99.90
51853;DHT22;37894;53.172;6.598;2022-12-18T17:12:18;-2.10;99.90
51853;DHT22;37894;53.172;6.598;2022-12-18T17:14:44;-2.20;99.90
51853;DHT22;37894;53.172;6.598;2022-12-18T17:17:10;-1.70;99.90
51853;DHT22;37894;53.172;6.598;2022-12-18T17:19:36;-1.90;99.90
51853;DHT22;37894;53.172;6.598;2022-12-18T17:24:28;-1.80;99.90
51853;DHT22;37894;53.172;6.598;2022-12-18T17:31:46;-1.40;99.90
51853;DHT22;37894;53.172;6.598;2022-12-18T17:34:12;-1.80;99.90
51853;DHT22;37894;53.172;6.598;2022-12-18T17:39:06;-1.50;99.90
51853;DHT22;37894;53.172;6.598;2022-12-18T17:41:32;-1.30;99.90
51853;DHT22;37894;53.172;6.598;2022-12-18T17:44:03;-0.90;99.90
51853;DHT22;37894;53.172;6.598;2022-12-18T17:46:32;-1.10;99.90
51853;DHT22;37894;53.172;6.598;2022-12-18T17:48:59;-1.70;99.90
51853;DHT22;37894;53.172;6.598;2022-12-18T17:51:26;-1.30;99.90
51853;DHT22;37894;53.172;6.598;2022-12-18T17:53:52;-0.40;99.90
51853;DHT22;37894;53.172;6.598;2022-12-18T17:56:20;-1.90;99.90
51853;DHT22;37894;53.172;6.598;2022-12-18T17:58:46;-1.10;99.90
51853;DHT22;37894;53.172;6.598;2022-12-18T18:01:14;-0.50;99.90
51853;DHT22;37894;53.172;6.598;2022-12-18T18:03:40;-1.40;99.90
51853;DHT22;37894;53.172;6.598;2022-12-18T18:06:07;-0.70;99.90
51853;DHT22;37894;53.172;6.598;2022-12-18T18:08:33;-1.40;99.90
51853;DHT22;37894;53.172;6.598;2022-12-18T18:11:06;-0.30;99.90
51853;DHT22;37894;53.172;6.598;2022-12-18T18:13:51;-1.20;99.90
51853;DHT22;37894;53.172;6.598;2022-12-18T18:16:35;-1.40;99.90
51853;DHT22;37894;53.172;6.598;2022-12-18T18:19:03;-1.30;99.90
51853;DHT22;37894;53.172;6.598;2022-12-18T18:21:30;-1.00;99.90
51853;DHT22;37894;53.172;6.598;2022-12-18T18:24:03;-1.30;99.90
51853;DHT22;37894;53.172;6.598;2022-12-18T18:26:33;-1.30;99.90
51853;DHT22;37894;53.172;6.598;2022-12-18T18:29:00;-1.50;99.90
51853;DHT22;37894;53.172;6.598;2022-12-18T18:31:28;-1.20;99.90
51853;DHT22;37894;53.172;6.598;2022-12-18T18:33:54;-1.20;99.90
51853;DHT22;37894;53.172;6.598;2022-12-18T18:36:20;-0.60;99.90
51853;DHT22;37894;53.172;6.598;2022-12-18T18:38:46;-1.10;99.90
51853;DHT22;37894;53.172;6.598;2022-12-18T18:46:04;-1.10;99.90
51853;DHT22;37894;53.172;6.598;2022-12-18T18:48:33;-1.30;99.90
51853;DHT22;37894;53.172;6.598;2022-12-18T18:51:05;-0.90;99.90
51853;DHT22;37894;53.172;6.598;2022-12-18T18:53:35;-0.90;99.90
51853;DHT22;37894;53.172;6.598;2022-12-18T18:56:01;-1.80;99.90
51853;DHT22;37894;53.172;6.598;2022-12-18T18:58:28;-1.00;99.90
51853;DHT22;37894;53.172;6.598;2022-12-18T19:00:59;-1.00;99.90
51853;DHT22;37894;53.172;6.598;2022-12-18T19:03:26;-0.80;99.90
51853;DHT22;37894;53.172;6.598;2022-12-18T19:05:54;-1.20;99.90
51853;DHT22;37894;53.172;6.598;2022-12-18T19:08:28;-1.80;99.90
51853;DHT22;37894;53.172;6.598;2022-12-18T19:10:57;-0.90;99.90
51853;DHT22;37894;53.172;6.598;2022-12-18T19:13:31;-0.90;99.90
51853;DHT22;37894;53.172;6.598;2022-12-18T19:16:07;-0.90;99.90
51853;DHT22;37894;53.172;6.598;2022-12-18T19:18:34;-0.70;99.90
51853;DHT22;37894;53.172;6.598;2022-12-18T19:21:04;-2.00;99.90
51853;DHT22;37894;53.172;6.598;2022-12-18T19:23:31;-0.80;99.90
51853;DHT22;37894;53.172;6.598;2022-12-18T19:26:04;-0.80;99.90
51853;DHT22;37894;53.172;6.598;2022-12-18T19:28:30;-1.20;99.90
51853;DHT22;37894;53.172;6.598;2022-12-18T19:30:59;-0.50;99.90
51853;DHT22;37894;53.172;6.598;2022-12-18T19:33:27;-0.60;99.90
51853;DHT22;37894;53.172;6.598;2022-12-18T19:35:53;-0.50;99.90
51853;DHT22;37894;53.172;6.598;2022-12-18T19:38:18;-0.70;99.90
51853;DHT22;37894;53.172;6.598;2022-12-18T19:48:05;-0.70;99.90
51853;DHT22;37894;53.172;6.598;2022-12-18T19:50:32;-0.70;99.90
51853;DHT22;37894;53.172;6.598;2022-12-18T19:52:57;-0.40;99.90
51853;DHT22;37894;53.172;6.598;2022-12-18T19:57:49;0.20;99.90
51853;DHT22;37894;53.172;6.598;2022-12-18T20:00:15;-0.40;99.90
51853;DHT22;37894;53.172;6.598;2022-12-18T20:02:41;-0.40;99.90
51853;DHT22;37894;53.172;6.598;2022-12-18T20:05:12;-0.10;99.90
51853;DHT22;37894;53.172;6.598;2022-12-18T20:07:38;-1.10;99.90
51853;DHT22;37894;53.172;6.598;2022-12-18T20:10:06;-0.50;99.90
51853;DHT22;37894;53.172;6.598;2022-12-18T20:12:32;0.00;99.90
51853;DHT22;37894;53.172;6.598;2022-12-18T20:14:58;-0.20;99.90